Briefing drone pour La chapelle-saint-mesmin

Rechercher une autre localisation

Conditions de vol :


Nous sommes le : Mardi 22 juin 2021
Il est 22:46 UTC (00:46 LT)

Lever de soleil : 03:28 UTC (05:28 LT)
Coucher de soleil : 20:21 UTC (22:21 LT)

Météo

L'essentiel des conditions de vol

VIGILANCE MÉTÉO FRANCE - Loiret (45)
Vigilance Jaune : Orages
CARTE TEMSI
CARTES DES FRONTS
METAR de LFOJ
LFOJ 212230Z AUTO 26005KT 9999 FEW035 OVC170 15/14 Q1009

Date d'émission: 21/06/2021
Heure d'émission: 22:30 UTC
Vent: 260° pour 5 KT (9 km/h)
Visibilité horizontale: > 10 km
Plafond :
- Peu de nuages à 3500ft (1067m)
- Couvert à 17000ft (5182m)
Température: 15 °C
Point de rosée: 14 °C
Humidité: 94%
Pression (QNH): 1009 hPa
TAF de LFOJ
LFOJ 212205Z 2122/2221 CNL

Conditions prévues :

Heure d'émission : Bulletin éffectué le 21 à 22:00 UTC
Prévision : Valide du 21 a 22:00 UTC au 22 a 21:00 UTC
Nuages : à 0ft (0 m)
WEBCAM POUR LA CHAPELLE-SAINT-MESMIN

Réglementation

Voler en sécurité

CARTES AERONAUTIQUE 1/500.000
CARTES VAC (LFOJ)
SUP AIP




Chargement des AIP...
NOTAM (LA CHAPELLE-SAINT-MESMIN + Terrain à proximité / FIR )




Chargement des NOTAMS...
CONTACT PREFECTURE 45


Avertissement : Les données mises à disposition sont indicatives. Oxygène Drone ne pourra être tenu responsable de dégâts causés aux biens et aux personnes.